Time,TemperatureF,DewpointF,PressureIn,WindDirection,WindDirectionDegrees,WindSpeedMPH,WindSpeedGustMPH,Humidity,HourlyPrecipIn,Conditions,Clouds,dailyrainin,SoftwareType,DateUTC
2013-05-04 00:01:00,33.6,29.5,30.13,North,0,0.0,0.0,85,0.00,,,0.00,WUHU21623XXSP,2013-05-04 05:01:00,
2013-05-04 00:06:00,33.6,29.5,30.14,North,0,0.0,0.0,85,0.00,,,0.00,WUHU21623XXSP,2013-05-04 05:06:00,
2013-05-04 00:11:00,33.6,29.5,30.14,North,0,0.0,0.0,85,0.00,,,0.00,WUHU21623XXSP,2013-05-04 05:11:00,
2013-05-04 00:16:00,33.6,29.5,30.14,North,0,0.0,0.0,85,0.00,,,0.00,WUHU21623XXSP,2013-05-04 05:16:00,
2013-05-04 00:21:00,33.6,29.5,30.13,North,0,0.0,0.0,85,0.00,,,0.00,WUHU21623XXSP,2013-05-04 05:21:00,
2013-05-04 00:26:00,33.4,29.3,30.14,North,0,0.0,0.0,85,0.00,,,0.00,WUHU21623XXSP,2013-05-04 05:26:00,
2013-05-04 00:31:00,33.4,29.3,30.13,North,0,0.0,0.0,85,0.00,,,0.00,WUHU21623XXSP,2013-05-04 05:31:00,
2013-05-04 00:36:00,33.4,29.3,30.13,North,0,0.0,0.0,85,0.00,,,0.00,WUHU21623XXSP,2013-05-04 05:36:00,
2013-05-04 00:41:00,33.4,29.3,30.14,North,0,0.0,0.0,85,0.00,,,0.00,WUHU21623XXSP,2013-05-04 05:41:00,
2013-05-04 00:46:00,33.4,29.3,30.14,North,0,0.0,0.0,85,0.00,,,0.00,WUHU21623XXSP,2013-05-04 05:46:00,
2013-05-04 00:51:00,33.4,29.3,30.14,North,0,0.0,0.0,85,0.00,,,0.00,WUHU21623XXSP,2013-05-04 05:51:00,
2013-05-04 00:56:00,33.4,29.3,30.14,North,0,0.0,0.0,85,0.00,,,0.00,WUHU21623XXSP,2013-05-04 05:56:00,
2013-05-04 01:01:00,33.4,29.3,30.14,North,0,0.0,0.0,85,0.00,,,0.00,WUHU21623XXSP,2013-05-04 06:01:00,
2013-05-04 01:06:00,33.3,29.5,30.13,North,0,0.0,0.0,86,0.00,,,0.00,WUHU21623XXSP,2013-05-04 06:06:00,
2013-05-04 01:11:00,33.1,29.3,30.14,North,0,0.0,0.0,86,0.00,,,0.00,WUHU21623XXSP,2013-05-04 06:11:00,
2013-05-04 01:16:00,32.9,29.4,30.13,North,0,0.0,0.0,87,0.00,,,0.00,WUHU21623XXSP,2013-05-04 06:16:00,
2013-05-04 01:21:00,32.9,29.4,30.13,North,0,0.0,0.0,87,0.00,,,0.00,WUHU21623XXSP,2013-05-04 06:21:00,
2013-05-04 01:26:00,32.9,29.4,30.13,North,0,0.0,0.0,87,0.00,,,0.00,WUHU21623XXSP,2013-05-04 06:26:00,
2013-05-04 01:31:00,32.9,29.4,30.12,North,0,0.0,0.0,87,0.00,,,0.00,WUHU21623XXSP,2013-05-04 06:31:00,
2013-05-04 01:36:00,32.7,29.3,30.11,North,0,0.0,0.0,87,0.00,,,0.00,WUHU21623XXSP,2013-05-04 06:36:00,
2013-05-04 01:41:00,32.7,29.3,30.11,North,0,0.0,0.0,87,0.00,,,0.00,WUHU21623XXSP,2013-05-04 06:41:00,
2013-05-04 01:46:00,32.9,29.4,30.11,North,0,0.0,0.0,87,0.00,,,0.00,WUHU21623XXSP,2013-05-04 06:46:00,
2013-05-04 01:51:00,32.7,29.3,30.11,North,0,0.0,0.0,87,0.00,,,0.00,WUHU21623XXSP,2013-05-04 06:51:00,
2013-05-04 01:56:00,32.7,29.3,30.11,North,0,0.0,0.0,87,0.00,,,0.00,WUHU21623XXSP,2013-05-04 06:56:00,
2013-05-04 02:01:00,32.9,29.4,30.11,North,0,0.0,0.0,87,0.00,,,0.00,WUHU21623XXSP,2013-05-04 07:01:00,
2013-05-04 02:06:00,32.7,29.3,30.11,North,0,0.0,0.0,87,0.00,,,0.00,WUHU21623XXSP,2013-05-04 07:06:00,
2013-05-04 02:11:00,32.7,29.3,30.11,North,0,0.0,0.0,87,0.00,,,0.00,WUHU21623XXSP,2013-05-04 07:11:00,
2013-05-04 02:16:00,32.7,29.3,30.11,North,0,0.0,0.0,87,0.00,,,0.00,WUHU21623XXSP,2013-05-04 07:16:00,
2013-05-04 02:21:00,32.7,29.3,30.11,North,0,0.0,0.0,87,0.00,,,0.00,WUHU21623XXSP,2013-05-04 07:21:00,
2013-05-04 02:26:00,32.7,29.6,30.11,North,0,0.0,0.0,88,0.00,,,0.00,WUHU21623XXSP,2013-05-04 07:26:00,
2013-05-04 02:31:00,32.7,29.6,30.11,North,0,0.0,0.0,88,0.00,,,0.00,WUHU21623XXSP,2013-05-04 07:31:00,
2013-05-04 02:36:00,32.7,29.6,30.11,North,0,0.0,0.0,88,0.00,,,0.00,WUHU21623XXSP,2013-05-04 07:36:00,
2013-05-04 02:41:00,32.7,29.6,30.11,North,0,0.0,0.0,88,0.00,,,0.00,WUHU21623XXSP,2013-05-04 07:41:00,
2013-05-04 02:46:00,32.7,29.6,30.10,North,0,0.0,0.0,88,0.00,,,0.00,WUHU21623XXSP,2013-05-04 07:46:00,
2013-05-04 02:51:00,32.7,29.6,30.10,North,0,0.0,0.0,88,0.00,,,0.00,WUHU21623XXSP,2013-05-04 07:51:00,
2013-05-04 02:56:00,32.7,29.6,30.10,North,0,0.0,0.0,88,0.00,,,0.00,WUHU21623XXSP,2013-05-04 07:56:00,
2013-05-04 03:01:00,32.7,29.6,30.10,North,0,0.0,0.0,88,0.00,,,0.00,WUHU21623XXSP,2013-05-04 08:01:00,
2013-05-04 03:07:00,32.7,29.6,30.09,North,0,0.0,0.0,88,0.00,,,0.00,WUHU21623XXSP,2013-05-04 08:07:00,
2013-05-04 03:12:00,32.7,29.6,30.10,North,0,0.0,0.0,88,0.00,,,0.00,WUHU21623XXSP,2013-05-04 08:12:00,
2013-05-04 03:17:00,32.7,29.6,30.10,North,0,0.0,0.0,88,0.00,,,0.00,WUHU21623XXSP,2013-05-04 08:17:00,
2013-05-04 03:22:00,32.9,29.7,30.11,North,0,0.0,0.0,88,0.00,,,0.00,WUHU21623XXSP,2013-05-04 08:22:00,
2013-05-04 03:27:00,32.7,29.6,30.11,North,0,0.0,0.0,88,0.00,,,0.00,WUHU21623XXSP,2013-05-04 08:27:00,
2013-05-04 03:32:00,32.9,29.7,30.11,North,0,0.0,0.0,88,0.00,,,0.00,WUHU21623XXSP,2013-05-04 08:32:00,
2013-05-04 03:37:00,32.9,29.7,30.11,North,0,0.0,0.0,88,0.00,,,0.00,WUHU21623XXSP,2013-05-04 08:37:00,
2013-05-04 03:42:00,32.9,29.7,30.12,North,0,0.0,0.0,88,0.00,,,0.00,WUHU21623XXSP,2013-05-04 08:42:00,
2013-05-04 03:47:00,32.9,29.7,30.12,North,0,0.0,0.0,88,0.00,,,0.00,WUHU21623XXSP,2013-05-04 08:47:00,
2013-05-04 03:52:00,33.1,29.9,30.11,North,0,0.0,0.0,88,0.00,,,0.00,WUHU21623XXSP,2013-05-04 08:52:00,
2013-05-04 03:57:00,33.1,29.9,30.11,North,0,0.0,0.0,88,0.00,,,0.00,WUHU21623XXSP,2013-05-04 08:57:00,
2013-05-04 04:02:00,33.1,29.9,30.11,North,0,0.0,0.0,88,0.00,,,0.00,WUHU21623XXSP,2013-05-04 09:02:00,
2013-05-04 04:07:00,33.1,29.9,30.11,North,0,0.0,0.0,88,0.00,,,0.00,WUHU21623XXSP,2013-05-04 09:07:00,
2013-05-04 04:12:00,33.1,29.9,30.11,North,0,0.0,0.0,88,0.00,,,0.00,WUHU21623XXSP,2013-05-04 09:12:00,
2013-05-04 04:17:00,32.9,29.7,30.10,North,0,0.0,0.0,88,0.00,,,0.00,WUHU21623XXSP,2013-05-04 09:17:00,
2013-05-04 04:22:00,32.9,29.7,30.10,North,0,0.0,0.0,88,0.00,,,0.00,WUHU21623XXSP,2013-05-04 09:22:00,
2013-05-04 04:27:00,32.9,30.0,30.10,North,0,0.0,0.0,89,0.00,,,0.00,WUHU21623XXSP,2013-05-04 09:27:00,
2013-05-04 04:32:00,32.7,29.8,30.10,North,0,0.0,0.0,89,0.00,,,0.00,WUHU21623XXSP,2013-05-04 09:32:00,
2013-05-04 04:37:00,32.7,29.8,30.09,North,0,0.0,0.0,89,0.00,,,0.00,WUHU21623XXSP,2013-05-04 09:37:00,
2013-05-04 04:42:00,32.7,29.8,30.09,North,0,0.0,0.0,89,0.00,,,0.00,WUHU21623XXSP,2013-05-04 09:42:00,
2013-05-04 04:47:00,32.7,29.8,30.08,North,0,0.0,0.0,89,0.00,,,0.00,WUHU21623XXSP,2013-05-04 09:47:00,
2013-05-04 04:52:00,32.7,29.8,30.09,North,0,0.0,0.0,89,0.00,,,0.00,WUHU21623XXSP,2013-05-04 09:52:00,
2013-05-04 04:57:00,32.7,29.8,30.09,North,0,0.0,0.0,89,0.00,,,0.00,WUHU21623XXSP,2013-05-04 09:57:00,
2013-05-04 05:02:00,32.7,29.8,30.09,North,0,0.0,0.0,89,0.00,,,0.00,WUHU21623XXSP,2013-05-04 10:02:00,
2013-05-04 05:07:00,32.7,29.8,30.09,North,0,0.0,0.0,89,0.00,,,0.00,WUHU21623XXSP,2013-05-04 10:07:00,
2013-05-04 05:12:00,32.9,30.0,30.09,North,0,0.0,0.0,89,0.00,,,0.00,WUHU21623XXSP,2013-05-04 10:12:00,
2013-05-04 05:17:00,32.7,29.8,30.09,North,0,0.0,0.0,89,0.00,,,0.00,WUHU21623XXSP,2013-05-04 10:17:00,
2013-05-04 05:22:00,32.9,30.0,30.09,North,0,0.0,0.0,89,0.00,,,0.00,WUHU21623XXSP,2013-05-04 10:22:00,
2013-05-04 05:27:00,32.7,29.8,30.09,North,0,0.0,0.0,89,0.00,,,0.00,WUHU21623XXSP,2013-05-04 10:27:00,
2013-05-04 05:32:00,32.7,29.8,30.09,North,0,0.0,0.0,89,0.00,,,0.00,WUHU21623XXSP,2013-05-04 10:32:00,
2013-05-04 05:37:00,32.9,30.0,30.09,North,0,0.0,0.0,89,0.00,,,0.00,WUHU21623XXSP,2013-05-04 10:37:00,
2013-05-04 05:42:00,32.9,30.0,30.09,North,0,0.0,0.0,89,0.00,,,0.00,WUHU21623XXSP,2013-05-04 10:42:00,
2013-05-04 05:48:00,32.9,30.0,30.10,North,0,0.0,0.0,89,0.00,,,0.00,WUHU21623XXSP,2013-05-04 10:48:00,
2013-05-04 05:53:00,32.9,30.0,30.10,North,0,0.0,0.0,89,0.00,,,0.00,WUHU21623XXSP,2013-05-04 10:53:00,
2013-05-04 05:58:00,32.9,30.0,30.10,North,0,0.0,0.0,89,0.00,,,0.00,WUHU21623XXSP,2013-05-04 10:58:00,
2013-05-04 06:03:00,33.1,30.2,30.11,North,0,0.0,0.0,89,0.00,,,0.00,WUHU21623XXSP,2013-05-04 11:03:00,
2013-05-04 06:08:00,32.9,30.0,30.10,North,0,0.0,0.0,89,0.00,,,0.00,WUHU21623XXSP,2013-05-04 11:08:00,
2013-05-04 06:13:00,32.9,30.0,30.11,North,0,0.0,0.0,89,0.00,,,0.00,WUHU21623XXSP,2013-05-04 11:13:00,
2013-05-04 06:18:00,33.1,30.2,30.10,North,0,0.0,0.0,89,0.00,,,0.00,WUHU21623XXSP,2013-05-04 11:18:00,
2013-05-04 06:23:00,33.1,30.2,30.11,North,0,0.0,0.0,89,0.00,,,0.00,WUHU21623XXSP,2013-05-04 11:23:00,
2013-05-04 06:28:00,33.1,30.2,30.11,North,0,0.0,0.0,89,0.00,,,0.00,WUHU21623XXSP,2013-05-04 11:28:00,
2013-05-04 06:33:00,33.1,30.2,30.10,North,0,0.0,0.0,89,0.00,,,0.00,WUHU21623XXSP,2013-05-04 11:33:00,
2013-05-04 06:38:00,33.1,30.2,30.10,North,0,0.0,0.0,89,0.00,,,0.00,WUHU21623XXSP,2013-05-04 11:38:00,
2013-05-04 06:43:00,33.1,30.2,30.10,North,0,0.0,0.0,89,0.00,,,0.00,WUHU21623XXSP,2013-05-04 11:43:00,
2013-05-04 06:48:00,33.1,30.2,30.10,North,0,0.0,0.0,89,0.00,,,0.00,WUHU21623XXSP,2013-05-04 11:48:00,
2013-05-04 06:53:00,33.3,30.3,30.09,North,0,0.0,0.0,89,0.00,,,0.00,WUHU21623XXSP,2013-05-04 11:53:00,
2013-05-04 06:58:00,33.3,30.3,30.10,North,0,0.0,0.0,89,0.00,,,0.00,WUHU21623XXSP,2013-05-04 11:58:00,
2013-05-04 07:03:00,33.1,30.2,30.10,North,0,0.0,0.0,89,0.00,,,0.00,WUHU21623XXSP,2013-05-04 12:03:00,
2013-05-04 07:08:00,33.1,30.2,30.10,North,0,0.0,0.0,89,0.00,,,0.00,WUHU21623XXSP,2013-05-04 12:08:00,
2013-05-04 07:14:00,33.4,30.5,30.11,North,0,0.0,0.0,89,0.00,,,0.00,WUHU21623XXSP,2013-05-04 12:14:00,
2013-05-04 07:19:00,33.4,30.5,30.11,North,0,0.0,0.0,89,0.00,,,0.00,WUHU21623XXSP,2013-05-04 12:19:00,
2013-05-04 07:24:00,33.4,30.5,30.11,North,0,0.0,0.0,89,0.00,,,0.00,WUHU21623XXSP,2013-05-04 12:24:00,
2013-05-04 07:29:00,33.4,30.5,30.10,North,0,0.0,0.0,89,0.00,,,0.00,WUHU21623XXSP,2013-05-04 12:29:00,
2013-05-04 07:34:00,33.4,30.5,30.10,North,0,0.0,0.0,89,0.00,,,0.00,WUHU21623XXSP,2013-05-04 12:34:00,
2013-05-04 07:39:00,33.6,30.6,30.10,North,0,0.0,0.0,89,0.00,,,0.00,WUHU21623XXSP,2013-05-04 12:39:00,
2013-05-04 07:44:00,33.6,30.6,30.10,North,0,0.0,0.0,89,0.00,,,0.00,WUHU21623XXSP,2013-05-04 12:44:00,
2013-05-04 07:49:00,33.6,30.6,30.10,North,0,0.0,0.0,89,0.00,,,0.00,WUHU21623XXSP,2013-05-04 12:49:00,
2013-05-04 07:54:00,33.6,30.6,30.10,North,0,0.0,0.0,89,0.00,,,0.00,WUHU21623XXSP,2013-05-04 12:54:00,
2013-05-04 07:59:00,33.8,30.8,30.11,North,0,0.0,0.0,89,0.00,,,0.00,WUHU21623XXSP,2013-05-04 12:59:00,
2013-05-04 08:04:00,33.8,30.8,30.11,North,0,0.0,0.0,89,0.00,,,0.00,WUHU21623XXSP,2013-05-04 13:04:00,
2013-05-04 08:09:00,34.0,31.0,30.11,North,0,0.0,0.0,89,0.00,,,0.00,WUHU21623XXSP,2013-05-04 13:09:00,
2013-05-04 08:14:00,34.2,31.2,30.11,North,0,0.0,0.0,89,0.00,,,0.00,WUHU21623XXSP,2013-05-04 13:14:00,
2013-05-04 08:19:00,34.2,31.2,30.11,North,0,0.0,0.0,89,0.00,,,0.00,WUHU21623XXSP,2013-05-04 13:19:00,
2013-05-04 08:24:00,34.2,31.2,30.11,North,0,0.0,0.0,89,0.00,,,0.00,WUHU21623XXSP,2013-05-04 13:24:00,
2013-05-04 08:29:00,34.3,31.4,30.11,North,0,0.0,0.0,89,0.00,,,0.00,WUHU21623XXSP,2013-05-04 13:29:00,
2013-05-04 08:34:00,34.3,31.4,30.11,North,0,0.0,0.0,89,0.00,,,0.00,WUHU21623XXSP,2013-05-04 13:34:00,
2013-05-04 08:39:00,34.5,31.5,30.11,North,0,0.0,0.0,89,0.00,,,0.00,WUHU21623XXSP,2013-05-04 13:39:00,
2013-05-04 08:44:00,34.5,31.5,30.11,North,0,0.0,0.0,89,0.00,,,0.00,WUHU21623XXSP,2013-05-04 13:44:00,
2013-05-04 08:49:00,34.5,31.5,30.12,North,0,0.0,0.0,89,0.00,,,0.00,WUHU21623XXSP,2013-05-04 13:49:00,
2013-05-04 08:54:00,34.5,31.5,30.11,North,0,0.0,0.0,89,0.00,,,0.00,WUHU21623XXSP,2013-05-04 13:54:00,
2013-05-04 08:59:00,34.7,31.7,30.12,North,0,0.0,0.0,89,0.00,,,0.00,WUHU21623XXSP,2013-05-04 13:59:00,
2013-05-04 09:04:00,34.9,31.9,30.11,North,0,0.0,0.0,89,0.00,,,0.00,WUHU21623XXSP,2013-05-04 14:04:00,
2013-05-04 09:09:00,34.9,31.9,30.11,North,0,0.0,0.0,89,0.00,,,0.00,WUHU21623XXSP,2013-05-04 14:09:00,
2013-05-04 09:14:00,34.9,31.9,30.11,North,0,0.0,0.0,89,0.00,,,0.00,WUHU21623XXSP,2013-05-04 14:14:00,
2013-05-04 09:19:00,35.2,32.0,30.11,North,0,0.0,0.0,88,0.00,,,0.00,WUHU21623XXSP,2013-05-04 14:19:00,
2013-05-04 09:24:00,35.2,32.0,30.11,North,0,0.0,0.0,88,0.00,,,0.00,WUHU21623XXSP,2013-05-04 14:24:00,
2013-05-04 09:29:00,35.2,32.0,30.11,North,0,0.0,0.0,88,0.00,,,0.00,WUHU21623XXSP,2013-05-04 14:29:00,
2013-05-04 09:30:00,35.2,32.0,30.11,North,0,0.0,0.0,88,0.00,,,0.00,WUHU21623XXSP,2013-05-04 14:30:00,
2013-05-04 09:35:00,35.2,32.0,30.11,North,0,0.0,0.0,88,0.00,,,0.00,WUHU21623XXSP,2013-05-04 14:35:00,
2013-05-04 09:40:00,35.4,32.1,30.11,North,0,0.0,0.0,88,0.00,,,0.00,WUHU21623XXSP,2013-05-04 14:40:00,
2013-05-04 09:45:00,35.8,32.5,30.11,North,0,0.0,0.0,88,0.00,,,0.00,WUHU21623XXSP,2013-05-04 14:45:00,
2013-05-04 09:50:00,36.1,32.9,30.11,North,0,0.0,0.0,88,0.00,,,0.00,WUHU21623XXSP,2013-05-04 14:50:00,
2013-05-04 09:55:00,36.3,33.0,30.11,North,0,0.0,0.0,88,0.00,,,0.00,WUHU21623XXSP,2013-05-04 14:55:00,
2013-05-04 10:00:00,36.7,33.4,30.11,North,0,0.0,0.0,88,0.00,,,0.00,WUHU21623XXSP,2013-05-04 15:00:00,
2013-05-04 10:05:00,36.7,33.4,30.12,North,0,0.0,0.0,88,0.00,,,0.00,WUHU21623XXSP,2013-05-04 15:05:00,
2013-05-04 10:10:00,37.0,33.8,30.11,North,0,0.0,0.0,88,0.00,,,0.00,WUHU21623XXSP,2013-05-04 15:10:00,
2013-05-04 10:15:00,37.2,33.9,30.12,North,0,0.0,0.0,88,0.00,,,0.00,WUHU21623XXSP,2013-05-04 15:15:00,
2013-05-04 10:20:00,37.4,34.1,30.11,North,0,0.0,0.0,88,0.00,,,0.00,WUHU21623XXSP,2013-05-04 15:20:00,
2013-05-04 10:25:00,37.6,34.0,30.12,North,0,0.0,0.0,87,0.00,,,0.00,WUHU21623XXSP,2013-05-04 15:25:00,
2013-05-04 10:30:00,37.6,34.0,30.12,North,0,0.0,0.0,87,0.00,,,0.00,WUHU21623XXSP,2013-05-04 15:30:00,
2013-05-04 10:35:00,37.4,33.8,30.13,North,0,0.0,0.0,87,0.00,,,0.00,WUHU21623XXSP,2013-05-04 15:35:00,
2013-05-04 10:40:00,37.4,33.8,30.12,North,0,0.0,0.0,87,0.00,,,0.00,WUHU21623XXSP,2013-05-04 15:40:00,
2013-05-04 10:45:00,37.4,33.8,30.12,North,0,0.0,0.0,87,0.00,,,0.00,WUHU21623XXSP,2013-05-04 15:45:00,
2013-05-04 10:50:00,37.2,33.7,30.12,North,0,0.0,0.0,87,0.00,,,0.00,WUHU21623XXSP,2013-05-04 15:50:00,
2013-05-04 10:55:00,37.6,34.3,30.12,North,0,0.0,0.0,88,0.00,,,0.00,WUHU21623XXSP,2013-05-04 15:55:00,
2013-05-04 11:00:00,37.6,34.0,30.12,North,0,0.0,0.0,87,0.00,,,0.00,WUHU21623XXSP,2013-05-04 16:00:00,
2013-05-04 11:05:00,37.6,34.0,30.12,North,0,0.0,0.0,87,0.00,,,0.00,WUHU21623XXSP,2013-05-04 16:05:00,
2013-05-04 11:10:00,37.8,34.2,30.12,North,0,0.0,0.0,87,0.00,,,0.00,WUHU21623XXSP,2013-05-04 16:10:00,
2013-05-04 11:15:00,37.8,34.2,30.13,North,0,0.0,0.0,87,0.00,,,0.00,WUHU21623XXSP,2013-05-04 16:15:00,
2013-05-04 11:20:00,37.8,34.2,30.12,North,0,0.0,0.0,87,0.00,,,0.00,WUHU21623XXSP,2013-05-04 16:20:00,
2013-05-04 11:25:00,37.6,34.0,30.12,North,0,0.0,0.0,87,0.00,,,0.00,WUHU21623XXSP,2013-05-04 16:25:00,
2013-05-04 11:30:00,37.6,34.0,30.12,North,0,0.0,0.0,87,0.00,,,0.00,WUHU21623XXSP,2013-05-04 16:30:00,
2013-05-04 11:35:00,37.9,34.4,30.12,North,0,0.0,0.0,87,0.00,,,0.00,WUHU21623XXSP,2013-05-04 16:35:00,
2013-05-04 11:40:00,37.9,34.4,30.12,North,0,0.0,0.0,87,0.00,,,0.00,WUHU21623XXSP,2013-05-04 16:40:00,
2013-05-04 11:45:00,38.1,34.6,30.12,North,0,0.0,0.0,87,0.00,,,0.00,WUHU21623XXSP,2013-05-04 16:45:00,
2013-05-04 11:50:00,38.5,34.9,30.12,North,0,0.0,0.0,87,0.00,,,0.00,WUHU21623XXSP,2013-05-04 16:50:00,
2013-05-04 11:55:00,38.8,35.3,30.12,North,0,0.0,0.0,87,0.00,,,0.00,WUHU21623XXSP,2013-05-04 16:55:00,
2013-05-04 12:00:00,39.0,35.5,30.12,North,0,0.0,0.0,87,0.00,,,0.00,WUHU21623XXSP,2013-05-04 17:00:00,
2013-05-04 12:05:00,39.0,35.2,30.12,North,0,0.0,0.0,86,0.00,,,0.00,WUHU21623XXSP,2013-05-04 17:05:00,
2013-05-04 12:10:00,39.2,35.3,30.12,North,0,0.0,0.0,86,0.00,,,0.00,WUHU21623XXSP,2013-05-04 17:10:00,
2013-05-04 12:15:00,39.4,35.5,30.12,North,0,0.0,0.0,86,0.00,,,0.00,WUHU21623XXSP,2013-05-04 17:15:00,
2013-05-04 12:20:00,39.6,35.7,30.12,North,0,0.0,0.0,86,0.00,,,0.00,WUHU21623XXSP,2013-05-04 17:20:00,
2013-05-04 12:25:00,39.7,35.6,30.13,North,0,0.0,0.0,85,0.00,,,0.00,WUHU21623XXSP,2013-05-04 17:25:00,
2013-05-04 12:30:00,39.9,35.7,30.13,North,0,0.0,0.0,85,0.00,,,0.00,WUHU21623XXSP,2013-05-04 17:30:00,
2013-05-04 12:35:00,40.1,35.9,30.13,North,0,0.0,0.0,85,0.00,,,0.00,WUHU21623XXSP,2013-05-04 17:35:00,
2013-05-04 12:40:00,40.3,36.1,30.13,North,0,0.0,0.0,85,0.00,,,0.00,WUHU21623XXSP,2013-05-04 17:40:00,
2013-05-04 12:45:00,40.3,36.1,30.13,North,0,0.0,0.0,85,0.00,,,0.00,WUHU21623XXSP,2013-05-04 17:45:00,
2013-05-04 12:50:00,40.5,36.2,30.13,North,0,0.0,0.0,85,0.00,,,0.00,WUHU21623XXSP,2013-05-04 17:50:00,
2013-05-04 12:55:00,40.6,36.1,30.13,North,0,0.0,0.0,84,0.00,,,0.00,WUHU21623XXSP,2013-05-04 17:55:00,
2013-05-04 13:00:00,40.8,36.1,30.13,North,0,0.0,0.0,84,0.00,,,0.00,WUHU21623XXSP,2013-05-04 18:00:00,
2013-05-04 13:05:00,41.0,36.8,30.13,North,0,0.0,0.0,85,0.00,,,0.00,WUHU21623XXSP,2013-05-04 18:05:00,
2013-05-04 13:10:00,41.4,36.8,30.13,North,0,0.0,0.0,84,0.00,,,0.00,WUHU21623XXSP,2013-05-04 18:10:00,
2013-05-04 13:15:00,41.5,37.0,30.13,North,0,0.0,0.0,84,0.00,,,0.00,WUHU21623XXSP,2013-05-04 18:15:00,
2013-05-04 13:20:00,41.5,36.7,30.13,North,0,0.0,0.0,83,0.00,,,0.00,WUHU21623XXSP,2013-05-04 18:20:00,
2013-05-04 13:25:00,41.5,36.7,30.13,North,0,0.0,0.0,83,0.00,,,0.00,WUHU21623XXSP,2013-05-04 18:25:00,
2013-05-04 13:30:00,41.5,36.7,30.13,North,0,0.0,0.0,83,0.00,,,0.00,WUHU21623XXSP,2013-05-04 18:30:00,
2013-05-04 13:35:00,41.7,37.2,30.13,North,0,0.0,0.0,84,0.00,,,0.00,WUHU21623XXSP,2013-05-04 18:35:00,
2013-05-04 13:40:00,41.9,37.1,30.13,North,0,0.0,0.0,83,0.00,,,0.00,WUHU21623XXSP,2013-05-04 18:40:00,
2013-05-04 13:45:00,42.1,37.2,30.13,North,0,0.0,0.0,83,0.00,,,0.00,WUHU21623XXSP,2013-05-04 18:45:00,
2013-05-04 13:50:00,42.6,37.8,30.12,North,0,0.0,0.0,83,0.00,,,0.00,WUHU21623XXSP,2013-05-04 18:50:00,
2013-05-04 13:55:00,43.5,38.4,30.12,North,0,0.0,0.0,82,0.00,,,0.00,WUHU21623XXSP,2013-05-04 18:55:00,
2013-05-04 14:00:00,43.9,38.7,30.13,North,0,0.0,0.0,82,0.00,,,0.00,WUHU21623XXSP,2013-05-04 19:00:00,
2013-05-04 14:05:00,44.2,38.8,30.13,North,0,0.0,0.0,81,0.00,,,0.00,WUHU21623XXSP,2013-05-04 19:05:00,
2013-05-04 14:10:00,44.2,38.8,30.13,North,0,0.0,0.0,81,0.00,,,0.00,WUHU21623XXSP,2013-05-04 19:10:00,
2013-05-04 14:15:00,44.1,38.3,30.14,North,0,0.0,0.0,80,0.00,,,0.00,WUHU21623XXSP,2013-05-04 19:15:00,
2013-05-04 14:20:00,43.5,37.8,30.14,North,0,0.0,0.0,80,0.00,,,0.00,WUHU21623XXSP,2013-05-04 19:20:00,
2013-05-04 14:25:00,43.2,37.7,30.13,North,0,0.0,0.0,81,0.00,,,0.00,WUHU21623XXSP,2013-05-04 19:25:00,
2013-05-04 14:30:00,43.2,37.7,30.14,North,0,0.0,0.0,81,0.00,,,0.00,WUHU21623XXSP,2013-05-04 19:30:00,
2013-05-04 14:35:00,43.2,37.7,30.14,North,0,0.0,0.0,81,0.00,,,0.00,WUHU21623XXSP,2013-05-04 19:35:00,
2013-05-04 14:40:00,43.3,37.9,30.14,North,0,0.0,0.0,81,0.00,,,0.00,WUHU21623XXSP,2013-05-04 19:40:00,
2013-05-04 14:45:00,43.3,37.9,30.13,North,0,0.0,0.0,81,0.00,,,0.00,WUHU21623XXSP,2013-05-04 19:45:00,
2013-05-04 14:50:00,43.7,38.2,30.13,North,0,0.0,0.0,81,0.00,,,0.00,WUHU21623XXSP,2013-05-04 19:50:00,
2013-05-04 14:55:00,44.2,38.8,30.13,North,0,0.0,0.0,81,0.00,,,0.00,WUHU21623XXSP,2013-05-04 19:55:00,
2013-05-04 15:00:00,44.8,39.0,30.12,North,0,0.0,0.0,80,0.00,,,0.00,WUHU21623XXSP,2013-05-04 20:00:00,
2013-05-04 15:05:00,45.0,38.9,30.12,North,0,0.0,0.0,79,0.00,,,0.00,WUHU21623XXSP,2013-05-04 20:05:00,
2013-05-04 15:10:00,45.3,39.2,30.12,North,0,0.0,0.0,79,0.00,,,0.00,WUHU21623XXSP,2013-05-04 20:10:00,
2013-05-04 15:15:00,45.3,39.2,30.12,North,0,0.0,0.0,79,0.00,,,0.00,WUHU21623XXSP,2013-05-04 20:15:00,
2013-05-04 15:20:00,45.7,39.6,30.11,North,0,0.0,0.0,79,0.00,,,0.00,WUHU21623XXSP,2013-05-04 20:20:00,
2013-05-04 15:25:00,46.0,39.6,30.11,North,0,0.0,0.0,78,0.00,,,0.00,WUHU21623XXSP,2013-05-04 20:25:00,
2013-05-04 15:30:00,46.0,39.6,30.11,North,0,0.0,0.0,78,0.00,,,0.00,WUHU21623XXSP,2013-05-04 20:30:00,
2013-05-04 15:35:00,46.2,40.1,30.11,North,0,0.0,0.0,79,0.00,,,0.00,WUHU21623XXSP,2013-05-04 20:35:00,
2013-05-04 15:40:00,46.6,40.1,30.11,North,0,0.0,0.0,78,0.00,,,0.00,WUHU21623XXSP,2013-05-04 20:40:00,
2013-05-04 15:46:00,46.9,40.1,30.11,North,0,0.0,0.0,77,0.00,,,0.00,WUHU21623XXSP,2013-05-04 20:46:00,
2013-05-04 15:51:00,47.1,40.3,30.11,North,0,0.0,0.0,77,0.00,,,0.00,WUHU21623XXSP,2013-05-04 20:51:00,
2013-05-04 15:56:00,47.1,40.3,30.12,North,0,0.0,0.0,77,0.00,,,0.00,WUHU21623XXSP,2013-05-04 20:56:00,
2013-05-04 16:01:00,47.1,39.9,30.12,North,0,0.0,0.0,76,0.00,,,0.00,WUHU21623XXSP,2013-05-04 21:01:00,
2013-05-04 16:06:00,47.1,39.9,30.12,North,0,0.0,0.0,76,0.00,,,0.00,WUHU21623XXSP,2013-05-04 21:06:00,
2013-05-04 16:11:00,47.1,39.9,30.12,North,0,0.0,0.0,76,0.00,,,0.00,WUHU21623XXSP,2013-05-04 21:11:00,
2013-05-04 16:15:00,46.9,39.8,30.12,North,0,0.0,0.0,76,0.00,,,0.00,WUHU21623XXSP,2013-05-04 21:15:00,
2013-05-04 16:20:00,46.9,39.8,30.12,North,0,0.0,0.0,76,0.00,,,0.00,WUHU21623XXSP,2013-05-04 21:20:00,
2013-05-04 16:26:00,46.9,39.8,30.12,North,0,0.0,0.0,76,0.00,,,0.00,WUHU21623XXSP,2013-05-04 21:26:00,
2013-05-04 16:31:00,47.5,40.6,30.12,North,0,0.0,0.0,77,0.00,,,0.00,WUHU21623XXSP,2013-05-04 21:31:00,
2013-05-04 16:36:00,47.8,40.9,30.12,North,0,0.0,0.0,77,0.00,,,0.00,WUHU21623XXSP,2013-05-04 21:36:00,
2013-05-04 16:41:00,47.8,40.6,30.12,North,0,0.0,0.0,76,0.00,,,0.00,WUHU21623XXSP,2013-05-04 21:41:00,
2013-05-04 16:46:00,47.5,40.2,30.12,North,0,0.0,0.0,76,0.00,,,0.00,WUHU21623XXSP,2013-05-04 21:46:00,
2013-05-04 16:51:00,47.1,39.9,30.12,North,0,0.0,0.0,76,0.00,,,0.00,WUHU21623XXSP,2013-05-04 21:51:00,
2013-05-04 16:56:00,46.8,39.6,30.12,North,0,0.0,0.0,76,0.00,,,0.00,WUHU21623XXSP,2013-05-04 21:56:00,
2013-05-04 17:01:00,46.6,39.8,30.12,North,0,0.0,0.0,77,0.00,,,0.00,WUHU21623XXSP,2013-05-04 22:01:00,
2013-05-04 17:06:00,46.4,40.0,30.12,North,0,0.0,0.0,78,0.00,,,0.00,WUHU21623XXSP,2013-05-04 22:06:00,
2013-05-04 17:11:00,46.2,39.8,30.12,North,0,0.0,0.0,78,0.00,,,0.00,WUHU21623XXSP,2013-05-04 22:11:00,
2013-05-04 17:16:00,46.2,39.8,30.12,North,0,0.0,0.0,78,0.00,,,0.00,WUHU21623XXSP,2013-05-04 22:16:00,
2013-05-04 17:21:00,46.2,39.8,30.12,North,0,0.0,0.0,78,0.00,,,0.00,WUHU21623XXSP,2013-05-04 22:21:00,
2013-05-04 17:26:00,46.2,39.8,30.12,North,0,0.0,0.0,78,0.00,,,0.00,WUHU21623XXSP,2013-05-04 22:26:00,
2013-05-04 17:31:00,46.2,40.1,30.12,North,0,0.0,0.0,79,0.00,,,0.00,WUHU21623XXSP,2013-05-04 22:31:00,
2013-05-04 17:36:00,46.0,39.9,30.12,North,0,0.0,0.0,79,0.00,,,0.00,WUHU21623XXSP,2013-05-04 22:36:00,
2013-05-04 17:41:00,46.2,40.1,30.12,North,0,0.0,0.0,79,0.00,,,0.00,WUHU21623XXSP,2013-05-04 22:41:00,
2013-05-04 17:46:00,46.2,40.1,30.12,North,0,0.0,0.0,79,0.00,,,0.00,WUHU21623XXSP,2013-05-04 22:46:00,
2013-05-04 17:51:00,46.2,40.1,30.12,North,0,0.0,0.0,79,0.00,,,0.00,WUHU21623XXSP,2013-05-04 22:51:00,
2013-05-04 17:56:00,46.6,40.5,30.12,North,0,0.0,0.0,79,0.00,,,0.00,WUHU21623XXSP,2013-05-04 22:56:00,
2013-05-04 18:01:00,46.9,40.4,30.12,North,0,0.0,0.0,78,0.00,,,0.00,WUHU21623XXSP,2013-05-04 23:01:00,
2013-05-04 18:06:00,46.9,40.4,30.12,North,0,0.0,0.0,78,0.00,,,0.00,WUHU21623XXSP,2013-05-04 23:06:00,
2013-05-04 18:11:00,46.9,40.4,30.12,North,0,0.0,0.0,78,0.00,,,0.00,WUHU21623XXSP,2013-05-04 23:11:00,
2013-05-04 18:16:00,46.9,40.4,30.12,North,0,0.0,0.0,78,0.00,,,0.00,WUHU21623XXSP,2013-05-04 23:16:00,
2013-05-04 18:21:00,46.8,40.3,30.11,North,0,0.0,0.0,78,0.00,,,0.00,WUHU21623XXSP,2013-05-04 23:21:00,
2013-05-04 18:26:00,46.6,40.1,30.11,North,0,0.0,0.0,78,0.00,,,0.00,WUHU21623XXSP,2013-05-04 23:26:00,
2013-05-04 18:31:00,46.6,40.1,30.11,North,0,0.0,0.0,78,0.00,,,0.00,WUHU21623XXSP,2013-05-04 23:31:00,
2013-05-04 18:36:00,46.2,39.8,30.12,North,0,0.0,0.0,78,0.00,,,0.00,WUHU21623XXSP,2013-05-04 23:36:00,
2013-05-04 18:41:00,46.0,39.6,30.12,North,0,0.0,0.0,78,0.00,,,0.00,WUHU21623XXSP,2013-05-04 23:41:00,
2013-05-04 18:46:00,45.7,39.6,30.12,North,0,0.0,0.0,79,0.00,,,0.00,WUHU21623XXSP,2013-05-04 23:46:00,
2013-05-04 18:51:00,45.5,39.4,30.13,North,0,0.0,0.0,79,0.00,,,0.00,WUHU21623XXSP,2013-05-04 23:51:00,
2013-05-04 18:56:00,45.3,39.2,30.13,North,0,0.0,0.0,79,0.00,,,0.00,WUHU21623XXSP,2013-05-04 23:56:00,
2013-05-04 19:01:00,45.3,39.2,30.13,North,0,0.0,0.0,80,0.00,,,0.00,WUHU21623XXSP,2013-05-05 00:01:00,
2013-05-04 19:06:00,45.1,39.4,30.13,North,0,0.0,0.0,80,0.00,,,0.00,WUHU21623XXSP,2013-05-05 00:06:00,
2013-05-04 19:11:00,45.0,39.2,30.13,North,0,0.0,0.0,80,0.00,,,0.00,WUHU21623XXSP,2013-05-05 00:11:00,
2013-05-04 19:16:00,44.8,39.3,30.13,North,0,0.0,0.0,81,0.00,,,0.00,WUHU21623XXSP,2013-05-05 00:16:00,
2013-05-04 19:21:00,44.4,39.0,30.13,North,0,0.0,0.0,81,0.00,,,0.00,WUHU21623XXSP,2013-05-05 00:21:00,
2013-05-04 19:22:00,44.4,39.0,30.14,North,0,0.0,0.0,81,0.00,,,0.00,WUHU21623XXSP,2013-05-05 00:22:00,
2013-05-04 19:27:00,44.2,38.8,30.14,North,0,0.0,0.0,81,0.00,,,0.00,WUHU21623XXSP,2013-05-05 00:27:00,
2013-05-04 19:32:00,44.2,39.1,30.13,North,0,0.0,0.0,82,0.00,,,0.00,WUHU21623XXSP,2013-05-05 00:32:00,
2013-05-04 19:37:00,43.9,38.7,30.13,North,0,0.0,0.0,82,0.00,,,0.00,WUHU21623XXSP,2013-05-05 00:37:00,
2013-05-04 19:42:00,43.9,38.7,30.13,North,0,0.0,0.0,82,0.00,,,0.00,WUHU21623XXSP,2013-05-05 00:42:00,
2013-05-04 19:47:00,43.7,38.6,30.13,North,0,0.0,0.0,82,0.00,,,0.00,WUHU21623XXSP,2013-05-05 00:47:00,
2013-05-04 19:52:00,43.7,38.6,30.13,North,0,0.0,0.0,82,0.00,,,0.00,WUHU21623XXSP,2013-05-05 00:52:00,
2013-05-04 19:57:00,43.7,38.6,30.13,North,0,0.0,0.0,82,0.00,,,0.00,WUHU21623XXSP,2013-05-05 00:57:00,
2013-05-04 20:02:00,43.5,38.7,30.14,North,0,0.0,0.0,83,0.00,,,0.00,WUHU21623XXSP,2013-05-05 01:02:00,
2013-05-04 20:07:00,43.5,38.7,30.13,North,0,0.0,0.0,83,0.00,,,0.00,WUHU21623XXSP,2013-05-05 01:07:00,
2013-05-04 20:12:00,43.5,38.7,30.13,North,0,0.0,0.0,83,0.00,,,0.00,WUHU21623XXSP,2013-05-05 01:12:00,
2013-05-04 20:17:00,43.5,38.7,30.14,North,0,0.0,0.0,83,0.00,,,0.00,WUHU21623XXSP,2013-05-05 01:17:00,
2013-05-04 20:22:00,43.3,38.5,30.14,North,0,0.0,0.0,83,0.00,,,0.00,WUHU21623XXSP,2013-05-05 01:22:00,
2013-05-04 20:27:00,43.5,38.7,30.14,North,0,0.0,0.0,83,0.00,,,0.00,WUHU21623XXSP,2013-05-05 01:27:00,
2013-05-04 20:33:00,43.3,38.5,30.14,North,0,0.0,0.0,83,0.00,,,0.00,WUHU21623XXSP,2013-05-05 01:33:00,
2013-05-04 20:37:00,43.2,38.3,30.14,North,0,0.0,0.0,83,0.00,,,0.00,WUHU21623XXSP,2013-05-05 01:37:00,
2013-05-04 20:42:00,43.2,38.3,30.14,North,0,0.0,0.0,83,0.00,,,0.00,WUHU21623XXSP,2013-05-05 01:42:00,
2013-05-04 20:47:00,43.0,38.4,30.14,North,0,0.0,0.0,84,0.00,,,0.00,WUHU21623XXSP,2013-05-05 01:47:00,
2013-05-04 20:52:00,43.0,38.4,30.14,North,0,0.0,0.0,84,0.00,,,0.00,WUHU21623XXSP,2013-05-05 01:52:00,
2013-05-04 20:57:00,43.0,38.4,30.14,North,0,0.0,0.0,84,0.00,,,0.00,WUHU21623XXSP,2013-05-05 01:57:00,
2013-05-04 21:02:00,43.0,38.4,30.14,North,0,0.0,0.0,84,0.00,,,0.00,WUHU21623XXSP,2013-05-05 02:02:00,
2013-05-04 21:07:00,43.0,38.4,30.14,North,0,0.0,0.0,84,0.00,,,0.00,WUHU21623XXSP,2013-05-05 02:07:00,
2013-05-04 21:12:00,42.6,38.1,30.14,North,0,0.0,0.0,84,0.00,,,0.00,WUHU21623XXSP,2013-05-05 02:12:00,
2013-05-04 21:17:00,42.6,38.1,30.15,North,0,0.0,0.0,84,0.00,,,0.00,WUHU21623XXSP,2013-05-05 02:17:00,
2013-05-04 21:22:00,42.6,38.1,30.15,North,0,0.0,0.0,84,0.00,,,0.00,WUHU21623XXSP,2013-05-05 02:22:00,
2013-05-04 21:27:00,42.6,38.1,30.15,North,0,0.0,0.0,84,0.00,,,0.00,WUHU21623XXSP,2013-05-05 02:27:00,
2013-05-04 21:33:00,42.6,38.1,30.15,North,0,0.0,0.0,84,0.00,,,0.00,WUHU21623XXSP,2013-05-05 02:33:00,
2013-05-04 21:38:00,42.6,38.1,30.15,North,0,0.0,0.0,84,0.00,,,0.00,WUHU21623XXSP,2013-05-05 02:38:00,
2013-05-04 21:43:00,42.4,38.2,30.15,North,0,0.0,0.0,85,0.00,,,0.00,WUHU21623XXSP,2013-05-05 02:43:00,
2013-05-04 21:48:00,42.4,38.2,30.15,North,0,0.0,0.0,85,0.00,,,0.00,WUHU21623XXSP,2013-05-05 02:48:00,
2013-05-04 21:53:00,42.1,37.9,30.16,North,0,0.0,0.0,85,0.00,,,0.00,WUHU21623XXSP,2013-05-05 02:53:00,
2013-05-04 21:58:00,42.1,37.9,30.16,North,0,0.0,0.0,85,0.00,,,0.00,WUHU21623XXSP,2013-05-05 02:58:00,
2013-05-04 22:03:00,42.1,37.9,30.16,North,0,0.0,0.0,85,0.00,,,0.00,WUHU21623XXSP,2013-05-05 03:03:00,
2013-05-04 22:08:00,42.1,37.9,30.16,North,0,0.0,0.0,85,0.00,,,0.00,WUHU21623XXSP,2013-05-05 03:08:00,
2013-05-04 22:13:00,42.1,37.9,30.16,North,0,0.0,0.0,85,0.00,,,0.00,WUHU21623XXSP,2013-05-05 03:13:00,
2013-05-04 22:18:00,41.9,37.7,30.16,North,0,0.0,0.0,85,0.00,,,0.00,WUHU21623XXSP,2013-05-05 03:18:00,
2013-05-04 22:23:00,41.9,38.0,30.16,North,0,0.0,0.0,86,0.00,,,0.00,WUHU21623XXSP,2013-05-05 03:23:00,
2013-05-04 22:28:00,41.7,37.8,30.15,North,0,0.0,0.0,86,0.00,,,0.00,WUHU21623XXSP,2013-05-05 03:28:00,
2013-05-04 22:33:00,41.7,37.8,30.16,North,0,0.0,0.0,86,0.00,,,0.00,WUHU21623XXSP,2013-05-05 03:33:00,
2013-05-04 22:38:00,41.7,37.8,30.15,North,0,0.0,0.0,86,0.00,,,0.00,WUHU21623XXSP,2013-05-05 03:38:00,
2013-05-04 22:43:00,41.7,37.8,30.16,North,0,0.0,0.0,86,0.00,,,0.00,WUHU21623XXSP,2013-05-05 03:43:00,
2013-05-04 22:48:00,41.7,37.8,30.15,North,0,0.0,0.0,86,0.00,,,0.00,WUHU21623XXSP,2013-05-05 03:48:00,
2013-05-04 22:53:00,41.5,37.6,30.15,North,0,0.0,0.0,86,0.00,,,0.00,WUHU21623XXSP,2013-05-05 03:53:00,
2013-05-04 22:58:00,41.5,37.6,30.15,North,0,0.0,0.0,86,0.00,,,0.00,WUHU21623XXSP,2013-05-05 03:58:00,
2013-05-04 23:01:00,41.5,37.6,30.15,North,0,0.0,0.0,86,0.00,,,0.00,WUHU21623XXSP,2013-05-05 04:01:00,
2013-05-04 23:02:00,41.5,37.6,30.15,North,0,0.0,0.0,86,0.00,,,0.00,WUHU21623XXSP,2013-05-05 04:02:00,
2013-05-04 23:07:00,41.5,37.6,30.15,North,0,0.0,0.0,86,0.00,,,0.00,WUHU21623XXSP,2013-05-05 04:07:00,
2013-05-04 23:11:00,41.4,37.4,30.15,North,0,0.0,0.0,86,0.00,,,0.00,WUHU21623XXSP,2013-05-05 04:11:00,
2013-05-04 23:16:00,41.4,37.4,30.15,North,0,0.0,0.0,86,0.00,,,0.00,WUHU21623XXSP,2013-05-05 04:16:00,
2013-05-04 23:21:00,41.2,37.3,30.15,North,0,0.0,0.0,86,0.00,,,0.00,WUHU21623XXSP,2013-05-05 04:21:00,
2013-05-04 23:26:00,41.2,37.0,30.15,North,0,0.0,0.0,85,0.00,,,0.00,WUHU21623XXSP,2013-05-05 04:26:00,
2013-05-04 23:32:00,41.2,37.0,30.15,North,0,0.0,0.0,85,0.00,,,0.00,WUHU21623XXSP,2013-05-05 04:32:00,
2013-05-04 23:37:00,41.2,37.0,30.15,North,0,0.0,0.0,85,0.00,,,0.00,WUHU21623XXSP,2013-05-05 04:37:00,
2013-05-04 23:42:00,41.0,36.8,30.15,North,0,0.0,0.0,85,0.00,,,0.00,WUHU21623XXSP,2013-05-05 04:42:00,
2013-05-04 23:47:00,40.8,36.6,30.15,North,0,0.0,0.0,85,0.00,,,0.00,WUHU21623XXSP,2013-05-05 04:47:00,
2013-05-04 23:51:00,40.8,36.6,30.15,North,0,0.0,0.0,85,0.00,,,0.00,WUHU21623XXSP,2013-05-05 04:51:00,
2013-05-04 23:56:00,40.8,36.6,30.15,North,0,0.0,0.0,85,0.00,,,0.00,WUHU21623XXSP,2013-05-05 04:56:00,